• Join FlightAware (Why Join?)
  • Login
  • US Flag 
08:48PM EDT


 

Airport Tracker/Info


-or-


 

Live Flight TrackerFlight Track Log ✈ UAL4180 ✈ 16-Apr-2013 ✈ CYYZ - KEWR

Flight Track Log - Related Links

Times and Time Zones

All times are in EDT time to prevent confusion due to time zone crossing. See the UAL4180 flight status page for this flight to view local times or setup timezone preferences in your user account.

Time Position Orientation Groundspeed Altitude Reporting Facility
EDT Latitude Longitude Course Direction KTS MPH feet Rate Location/Type
09:18PM 43.6667 -79.5833 71° East 70 81 700  Level Toronto Center
09:19PM 43.6833 -79.5167 71° East 230 265 3,200 2,700 Climbing Toronto Center
09:20PM 43.6500 -79.4333 119° Southeast 280 322 6,200 1,860 Climbing Toronto Center
09:21PM 43.6167 -79.3167 112° Southeast 300 345 7,000 1,920 Climbing Toronto Center
09:22PM 43.5667 -79.2167 125° Southeast 310 357 10,100 2,040 Climbing Toronto Center
09:23PM 43.5000 -79.0833 125° Southeast 370 426 11,100 1,560 Climbing Toronto Center
09:24PM 43.4500 -78.9667 121° Southeast 410 472 13,300 2,100 Climbing Toronto Center
09:25PM 43.3833 -78.8000 119° Southeast 420 483 15,400 1,800 Climbing Toronto Center
09:26PM 43.3167 -78.7000 132° Southeast 440 506 16,900 1,380 Climbing Toronto Center
09:27PM 43.2333 -78.5333 124° Southeast 450 518 18,200 1,260 Climbing Toronto Center
09:28PM 43.1500 -78.4000 131° Southeast 470 541 19,500 1,440 Climbing Toronto Center
09:29PM 43.0833 -78.2167 116° Southeast 480 552 21,100 1,440 Climbing Toronto Center
09:30PM 43.0333 -78.0667 114° Southeast 490 564 22,400 1,140 Climbing Toronto Center
09:31PM 43.0025 -77.9061 105° East 486 559 23,500 960 Climbing Cleveland Center
09:32PM 42.9542 -77.7208 110° East 506 582 24,500 960 Climbing Cleveland Center
09:33PM 42.8989 -77.5194 110° East 506 582 25,500 1,020 Climbing Cleveland Center
09:34PM 42.8503 -77.3347 110° East 512 589 26,600 120 Climbing Cleveland Center
09:36PM 42.7500 -76.9333 109° East 530 610 25,900 -540 Descending Toronto Center
09:37PM 42.7122 -76.8178 114° Southeast 519 597 25,100 -480 Descending Boston Center
09:38PM 42.6603 -76.6419 112° Southeast 512 589 25,000 -60 Descending Boston Center
09:39PM 42.5894 -76.4706 119° Southeast 506 582 25,000  Level Boston Center
09:40PM 42.5139 -76.3050 122° Southeast 511 588 25,000  Level Boston Center
09:41PM 42.4481 -76.1547 121° Southeast 520 598 25,000 -180 Level Boston Center
09:42PM 42.3719 -75.9869 122° Southeast 525 604 24,700 -600 Descending Boston Center
09:43PM 42.2958 -75.8228 122° Southeast 525 604 23,800 -960 Descending Boston Center
09:44PM 42.2156 -75.6417 121° Southeast 520 598 22,800 -1,440 Descending Boston Center
09:45PM 42.1428 -75.4867 122° Southeast 510 587 21,000 -2,340 Descending Boston Center
09:46PM 42.0758 -75.3353 121° Southeast 500 575 18,200 -1,560 Descending Boston Center
09:47PM 42.0150 -75.1869 119° Southeast 469 540 18,000 -120 Descending Boston Center
09:48PM 41.9706 -75.0286 111° Southeast 445 512 18,000  Level Boston Center
09:49PM 41.9619 -74.8581 94° East 438 504 18,000 -480 Level Boston Center
09:50PM 41.8969 -74.7803 138° Southeast 423 487 17,100 -1,860 Descending Boston Center
09:51PM 41.7717 -74.6781 149° Southeast 418 481 14,400 -2,700 Descending Boston Center
09:52PM 41.6753 -74.5997 149° Southeast 401 461 11,700 -1,920 Descending Boston Center
09:53PM 41.5869 -74.5272 148° Southeast 396 456 10,500 -1,620 Descending Boston Center
09:54PM 41.5111 -74.4694 150° Southeast 351 404 8,500 -1,440 Descending Boston Center
09:55PM 41.4411 -74.4117 148° Southeast 306 352 7,400 -540 Descending Boston Center
09:57PM 41.3000 -74.4333 187° South 264 304 7,000 -180 Descending New York TRACON
09:58PM 41.2333 -74.4167 169° South 292 336 7,000 -480 Level New York TRACON
09:58PM 41.1667 -74.3833 159° South 291 335 6,200 -960 Descending New York TRACON
09:59PM 41.0833 -74.3333 156° South 283 326 5,200 -1,020 Descending New York TRACON
10:00PM 41.0333 -74.2667 135° Southeast 267 307 4,200 -1,020 Descending New York TRACON
10:01PM 40.9833 -74.1833 128° Southeast 274 315 3,200 -600 Descending New York TRACON
10:02PM 40.9333 -74.1333 143° Southeast 262 302 3,000 -300 Descending New York TRACON
10:03PM 40.8667 -74.0833 150° Southeast 252 290 2,600 -240 Descending New York TRACON
10:04PM 40.8167 -74.0833 180° South 214 246 2,600 -540 Level New York TRACON
10:05PM 40.7667 -74.1167 207° Southwest 166 191 1,600 -840 Descending New York TRACON
10:06PM 40.7333 -74.1333 201° Southwest 120 138 900 -720 Descending New York TRACON